»·PEaware :: ACA420 LXGB-LPMA

ACA420 :: LXGB-LPMA

FLIGHT INFORMATION

Flight Status: Arrived
Operator:
Air Canada
More flights by this operator :: More flights under this callsign
Pilot: Nigam P. (15980)
Aircraft: EMBRAER EMB-170/175
(E170)
More flights by this aircraft type
Origin: LXGB Gibraltar AB
Gibraltar
Destination: LPMA Madeira
Portugal
More flights between these airports :: More routes between these airports
Route: AMPIR UT100 ORTOP LIDRO LIDR1C
File this flight plan on PilotEdge
Remarks: PBN / B2B3B4B5C1D1S2 DOF / 170715 REG / N175SB EET / LPPC0018 GMMM0020 LPPC0105 OPR / ACA RMK / TCAS SIMBRIEF
Altitude:
(Current/Filed)
33,000ft
Speed:
(Current/Filed)
411kts
Departed: 14-Jul-17 05:35 PM
Arrived: 14-Jul-17 07:10 PM
Distance/Time
Traveled:
602nm/1:35
Distance/Time
To Go:
Arrived

Flight Plot

Page will automatically refresh every two minutes.

Flight plan parsing failed; only flown route is shown


Map Options




Map Legend


Flown Route
Filed Route
Departure Airport
Arrival Airport
Navaid (VOR, NDB)
Fix

Horizontal Profiles

Position Reports

Time Latitude Longitude Heading Altitude Ground
Speed
14-Jul-17 17:37 36.154611 -5.191950 52 4689ft 275kts
14-Jul-17 17:38 36.216210 -5.199807 296 8444ft 281kts
14-Jul-17 17:39 36.185920 -5.283513 219 11264ft 301kts
14-Jul-17 17:40 36.131098 -5.371571 248 13091ft 349kts
14-Jul-17 17:41 36.096399 -5.484888 246 15800ft 356kts
14-Jul-17 17:42 36.057538 -5.599979 246 18103ft 366kts
14-Jul-17 17:43 36.017883 -5.718205 247 20000ft 380kts
14-Jul-17 17:44 35.976611 -5.840629 247 21721ft 393kts
14-Jul-17 17:45 35.934900 -5.968016 256 23282ft 406kts
14-Jul-17 17:46 35.931986 -6.108768 269 24747ft 416kts
14-Jul-17 17:47 35.930832 -6.251531 268 26458ft 415kts
14-Jul-17 17:48 35.928580 -6.392621 268 28408ft 403kts
14-Jul-17 17:49 35.926144 -6.515405 268 30072ft 390kts
14-Jul-17 17:50 35.926144 -6.515405 268 30072ft 390kts
14-Jul-17 17:53 35.979656 -7.072894 279 33017ft 407kts
14-Jul-17 17:54 35.997232 -7.189416 279 33025ft 418kts
14-Jul-17 17:55 36.018724 -7.332530 278 33032ft 429kts
14-Jul-17 17:56 36.005968 -7.478943 254 33041ft 436kts
14-Jul-17 17:57 35.971220 -7.623077 253 33046ft 441kts
14-Jul-17 17:58 35.936300 -7.768232 254 33046ft 442kts
14-Jul-17 17:59 35.901393 -7.914248 254 33046ft 442kts
14-Jul-17 18:00 35.866586 -8.059665 254 33046ft 443kts
14-Jul-17 18:01 35.831632 -8.205079 254 33041ft 443kts
14-Jul-17 18:02 35.796395 -8.350897 253 33042ft 443kts
14-Jul-17 18:03 35.761106 -8.496109 253 33042ft 443kts
14-Jul-17 18:04 35.725628 -8.641255 253 33042ft 443kts
14-Jul-17 18:05 35.689847 -8.786803 253 33042ft 443kts
14-Jul-17 18:06 35.654016 -8.931716 253 33042ft 444kts
14-Jul-17 18:07 35.617836 -9.077203 253 33042ft 444kts
14-Jul-17 18:10 35.515680 -9.483566 253 33042ft 444kts
14-Jul-17 18:11 35.472400 -9.653900 0 33042ft 0kts
14-Jul-17 18:12 35.452169 -9.732996 253 33042ft 445kts
14-Jul-17 18:14 35.360930 -10.087185 253 33042ft 445kts
14-Jul-17 18:15 35.323249 -10.232071 253 33042ft 445kts
14-Jul-17 18:16 35.285521 -10.376346 253 33043ft 445kts
14-Jul-17 18:17 35.247501 -10.520943 252 33043ft 445kts
14-Jul-17 18:18 35.209417 -10.664998 252 33043ft 446kts
14-Jul-17 18:19 35.171164 -10.808910 252 33043ft 446kts
14-Jul-17 18:20 35.132547 -10.953410 252 33043ft 446kts
14-Jul-17 18:21 35.093897 -11.097259 252 33043ft 446kts
14-Jul-17 18:22 35.055087 -11.240936 252 33151ft 445kts
14-Jul-17 18:23 35.016115 -11.384491 252 33448ft 444kts
14-Jul-17 18:24 34.977208 -11.527084 252 33746ft 443kts
14-Jul-17 18:25 34.938243 -11.669100 252 34011ft 442kts
14-Jul-17 18:30 34.749449 -12.346905 252 34004ft 447kts
14-Jul-17 18:32 34.690346 -12.555736 252 34003ft 447kts
14-Jul-17 18:33 34.649758 -12.698255 251 34003ft 447kts
14-Jul-17 18:34 34.608835 -12.841220 251 34003ft 447kts
14-Jul-17 18:35 34.568028 -12.983068 251 34003ft 447kts
14-Jul-17 18:36 34.526646 -13.126193 251 34003ft 447kts
14-Jul-17 18:37 34.485332 -13.268368 251 34003ft 447kts
14-Jul-17 18:38 34.443878 -13.410319 251 34003ft 448kts
14-Jul-17 18:39 34.402065 -13.552795 251 34003ft 448kts
14-Jul-17 18:40 34.360244 -13.694592 251 34003ft 448kts
14-Jul-17 18:41 34.318342 -13.836018 251 34001ft 441kts
14-Jul-17 18:42 34.278239 -13.970665 251 33998ft 405kts
14-Jul-17 18:43 34.241804 -14.092406 251 33997ft 366kts
14-Jul-17 18:44 34.208726 -14.202511 251 33998ft 336kts
14-Jul-17 18:46 34.174530 -14.316082 251 33166ft 330kts
14-Jul-17 18:47 34.119300 -14.498480 251 31257ft 318kts
14-Jul-17 18:50 34.026239 -14.803195 250 26992ft 301kts
14-Jul-17 18:51 34.014108 -14.842687 250 26363ft 298kts
14-Jul-17 18:52 33.995986 -14.901686 248 25456ft 297kts
14-Jul-17 18:53 33.967176 -14.995066 249 23959ft 301kts
14-Jul-17 18:54 33.938059 -15.089060 248 22590ft 295kts
14-Jul-17 18:55 33.909747 -15.180284 248 21482ft 288kts
14-Jul-17 18:56 33.881662 -15.270453 248 20483ft 288kts
14-Jul-17 18:57 33.853540 -15.360494 248 19480ft 285kts
14-Jul-17 18:58 33.825851 -15.448903 247 18480ft 281kts
14-Jul-17 18:59 33.798355 -15.536402 248 17481ft 278kts
14-Jul-17 19:00 33.536687 -16.088708 204 10666ft 272kts
14-Jul-17 19:01 33.372953 -16.183314 206 10012ft 270kts
14-Jul-17 19:02 33.107915 -16.375053 210 7101ft 269kts
14-Jul-17 19:03 33.045740 -16.422569 210 5680ft 260kts
14-Jul-17 19:06 32.884899 -16.559091 220 2953ft 197kts
14-Jul-17 19:07 32.862220 -16.582714 221 2925ft 179kts
14-Jul-17 19:08 32.815400 -16.636764 224 2894ft 147kts
14-Jul-17 19:09 32.786885 -16.670336 225 2471ft 140kts
14-Jul-17 19:10 32.759620 -16.702354 223 1898ft 136kts
14-Jul-17 19:11 32.732467 -16.734001 225 1411ft 138kts
14-Jul-17 19:12 32.705616 -16.765401 224 737ft 133kts
14-Jul-17 19:13 32.693346 -16.778879 108 722ft 13kts
14-Jul-17 19:14 32.694215 -16.776186 135 722ft 0kts
14-Jul-17 19:15 32.694213 -16.776184 135 722ft 0kts
14-Jul-17 19:16 32.694211 -16.776181 135 722ft 0kts
14-Jul-17 19:17 32.694210 -16.776180 135 722ft 0kts
14-Jul-17 19:18 32.694210 -16.776180 135 722ft 0kts
14-Jul-17 19:19 32.694210 -16.776180 135 722ft 0kts
14-Jul-17 19:20 32.694208 -16.776178 135 722ft 0kts
14-Jul-17 19:21 32.694206 -16.776175 135 722ft 0kts
14-Jul-17 19:22 32.694203 -16.776173 135 722ft 0kts
14-Jul-17 19:23 32.694201 -16.776170 135 722ft 0kts
14-Jul-17 19:24 32.694199 -16.776168 135 722ft 0kts
14-Jul-17 19:25 32.694197 -16.776165 135 722ft 0kts
14-Jul-17 19:26 32.694194 -16.776163 135 722ft 0kts
14-Jul-17 19:27 32.694192 -16.776160 135 722ft 0kts

Navigation Log

Ident Type
Flight plan parsing failed, navigation log unavailable